Terminal Aerodrome Forecast
Issued by NWS Mt. Holly, NJ

Current Version | Previous Version | Text Only | Print | Product List | Glossary On
Versions: 1 2 3 4 5 6 7 8 9 10 11 12 13 14 15 16 17 18
000
FTUS41 KPHI 052325
TAFILG
TAF
KILG 052325Z 0600/0624 16006KT P6SM FEW050 BKN250
     FM060300 VRB03KT P6SM BKN150
     FM060700 VRB03KT P6SM SCT035 BKN080
     FM061200 11006KT P6SM BKN080
     FM061700 14009KT P6SM VCSH BKN050=

USA.gov is the U.S. government's official web portal to all federal, state and local government web resources and services.